Terminal Aerodrome Forecast
Issued by NWS

Home | Current Version | Previous Version | Text Only | Print | Product List | Glossary On
Versions: 1 2 3 4 5 6 7 8 9 10 11 12 13 14 15 16 17 18
021
FTUS43 KILX 270705 AAA
TAFDEC
TAF AMD
KDEC 270705Z 2707/2806 VRB03KT P6SM OVC025
     FM271500 11010KT 3SM -SHRA BR OVC006
     FM272200 12010KT 3SM -SHRA BR VCTS BKN006CB OVC012
     FM280200 34008KT 5SM BR VCSH OVC015=

USA.gov is the U.S. government's official web portal to all federal, state and local government web resources and services.